createdAt,value
2019-04-07T00:01:01.115Z,77.96
2019-04-07T00:03:27.979Z,78.24
2019-04-07T00:05:55.011Z,78.32
2019-04-07T00:08:22.001Z,78.19
2019-04-07T00:10:48.974Z,78.06
2019-04-07T00:13:16.106Z,78.38
2019-04-07T00:15:43.336Z,78.52
2019-04-07T00:18:10.451Z,78.04
2019-04-07T00:20:37.534Z,77.81
2019-04-07T00:23:04.453Z,77.81
2019-04-07T00:25:31.286Z,77.82
2019-04-07T00:27:58.563Z,77.94
2019-04-07T00:30:25.633Z,77.76
2019-04-07T00:32:52.618Z,77.66
2019-04-07T00:35:26.571Z,77.85
2019-04-07T00:37:48.436Z,78.71
2019-04-07T00:40:15.448Z,78.76
2019-04-07T00:42:42.916Z,79.07
2019-04-07T00:45:10.720Z,79.86
2019-04-07T00:47:38.174Z,79.86
2019-04-07T00:50:07.578Z,80.29
2019-04-07T00:52:34.944Z,80.01
2019-04-07T00:55:02.391Z,79.75
2019-04-07T00:57:30.126Z,79.81
2019-04-07T00:59:57.245Z,79.65
2019-04-07T01:02:24.467Z,79.24
2019-04-07T01:04:51.826Z,79.12
2019-04-07T01:07:19.187Z,80.06
2019-04-07T01:09:46.422Z,80.66
2019-04-07T01:12:13.949Z,81.23
2019-04-07T01:14:41.653Z,80.37
2019-04-07T01:17:08.772Z,79.74
2019-04-07T01:19:36.559Z,78.98
2019-04-07T01:22:03.920Z,78.39
2019-04-07T01:24:31.062Z,77.07
2019-04-07T01:26:57.947Z,76.84
2019-04-07T01:29:25.414Z,76.25
2019-04-07T01:31:52.609Z,75.90
2019-04-07T01:34:19.743Z,75.91
2019-04-07T01:36:48.090Z,75.86
2019-04-07T01:39:15.256Z,75.37
2019-04-07T01:41:44.536Z,75.58
2019-04-07T01:44:13.629Z,75.57
2019-04-07T01:47:01.371Z,75.46
2019-04-07T01:49:36.063Z,75.58
2019-04-07T01:52:05.774Z,76.35
2019-04-07T01:54:41.364Z,76.24
2019-04-07T01:57:20.158Z,77.22
2019-04-07T02:00:08.390Z,77.42
2019-04-07T02:02:46.762Z,77.22
2019-04-07T02:05:28.744Z,77.29
2019-04-07T02:08:14.522Z,77.36
2019-04-07T02:11:02.581Z,78.44
2019-04-07T02:13:48.301Z,79.19
2019-04-07T02:16:26.932Z,79.43
2019-04-07T02:19:12.655Z,80.06
2019-04-07T02:21:41.657Z,80.27
2019-04-07T02:24:10.390Z,80.39
2019-04-07T02:26:48.621Z,80.74
2019-04-07T02:29:21.221Z,80.53
2019-04-07T02:32:00.260Z,79.46
2019-04-07T02:34:32.185Z,79.74
2019-04-07T02:37:04.742Z,79.31
2019-04-07T02:39:34.690Z,79.19
2019-04-07T02:42:06.840Z,78.99
2019-04-07T02:44:41.734Z,79.19
2019-04-07T02:47:24.331Z,79.47
2019-04-07T02:50:03.362Z,79.27
2019-04-07T02:52:42.005Z,78.68
2019-04-07T02:55:14.429Z,78.40
2019-04-07T02:57:47.425Z,78.03
2019-04-07T03:00:32.217Z,77.53
2019-04-07T03:03:01.787Z,77.09
2019-04-07T03:05:40.424Z,76.44
2019-04-07T03:08:15.689Z,76.12
2019-04-07T03:10:51.411Z,75.91
2019-04-07T03:13:21.132Z,75.81
2019-04-07T03:16:07.681Z,75.70
2019-04-07T03:18:42.677Z,75.13
2019-04-07T03:21:14.659Z,74.94
2019-04-07T03:23:45.720Z,74.72
2019-04-07T03:26:29.703Z,74.36
2019-04-07T03:29:16.073Z,74.23
2019-04-07T03:31:46.502Z,74.44
2019-04-07T03:34:24.084Z,74.11
2019-04-07T03:37:18.295Z,73.81
2019-04-07T03:39:47.739Z,73.91
2019-04-07T03:42:16.586Z,73.83
2019-04-07T03:44:51.636Z,73.76
2019-04-07T03:47:37.646Z,73.36
2019-04-07T03:50:10.268Z,73.77
2019-04-07T03:52:42.919Z,74.00
2019-04-07T03:55:24.552Z,76.44
2019-04-07T03:58:09.962Z,77.55
2019-04-07T04:01:10.924Z,77.57
2019-04-07T04:03:43.955Z,75.48
2019-04-07T04:06:30.165Z,75.14
2019-04-07T04:09:08.443Z,75.24
2019-04-07T04:11:48.934Z,75.45
2019-04-07T04:14:23.894Z,75.36
2019-04-07T04:16:52.401Z,75.06
2019-04-07T04:19:19.271Z,74.84
2019-04-07T04:21:47.894Z,74.62
2019-04-07T04:24:14.935Z,74.31
2019-04-07T04:26:42.054Z,74.26
2019-04-07T04:29:09.090Z,74.30
2019-04-07T04:31:37.014Z,74.20
2019-04-07T04:34:04.208Z,74.18
2019-04-07T04:36:31.623Z,75.98
2019-04-07T04:38:59.148Z,77.27
2019-04-07T04:41:27.287Z,77.62
2019-04-07T04:43:54.740Z,78.27
2019-04-07T04:46:21.866Z,78.88
2019-04-07T04:48:49.454Z,78.66
2019-04-07T04:51:17.574Z,78.61
2019-04-07T04:53:45.622Z,78.76
2019-04-07T04:56:12.837Z,78.80
2019-04-07T04:58:39.701Z,79.21
2019-04-07T05:01:06.636Z,79.29
2019-04-07T05:03:33.886Z,80.29
2019-04-07T05:06:01.400Z,80.29
2019-04-07T05:08:29.594Z,80.92
2019-04-07T05:10:56.721Z,80.80
2019-04-07T05:13:23.509Z,80.31
2019-04-07T05:15:51.083Z,80.60
2019-04-07T05:18:18.045Z,79.53
2019-04-07T05:20:45.316Z,79.78
2019-04-07T05:23:12.202Z,79.86
2019-04-07T05:25:39.164Z,79.54
2019-04-07T05:28:06.058Z,79.95
2019-04-07T05:30:33.662Z,80.36
2019-04-07T05:33:00.969Z,80.50
2019-04-07T05:35:28.647Z,80.08
2019-04-07T05:38:03.388Z,80.83
2019-04-07T05:40:25.452Z,80.53
2019-04-07T05:42:53.177Z,80.03
2019-04-07T05:45:20.467Z,79.71
2019-04-07T05:47:50.256Z,80.05
2019-04-07T05:50:16.635Z,80.41
2019-04-07T05:52:43.741Z,79.75
2019-04-07T05:55:11.009Z,79.83
2019-04-07T05:57:37.903Z,79.37
2019-04-07T06:00:15.595Z,79.43
2019-04-07T06:02:40.691Z,79.60
2019-04-07T06:05:08.051Z,79.46
2019-04-07T06:07:36.794Z,79.06
2019-04-07T06:10:05.985Z,78.68
2019-04-07T06:12:32.900Z,78.62
2019-04-07T06:15:00.544Z,78.54
2019-04-07T06:17:27.760Z,79.08
2019-04-07T06:19:55.873Z,78.76
2019-04-07T06:22:23.448Z,77.98
2019-04-07T06:24:50.459Z,78.07
2019-04-07T06:27:18.144Z,78.16
2019-04-07T06:29:45.736Z,77.74
2019-04-07T06:32:12.936Z,77.78
2019-04-07T06:34:41.592Z,77.92
2019-04-07T06:37:08.534Z,78.19
2019-04-07T06:39:36.158Z,77.58
2019-04-07T06:42:03.924Z,77.20
2019-04-07T06:44:30.938Z,77.05
2019-04-07T06:47:09.056Z,77.24
2019-04-07T06:49:50.066Z,77.40
2019-04-07T06:52:35.479Z,77.13
2019-04-07T06:55:17.893Z,76.67
2019-04-07T06:57:56.229Z,76.44
2019-04-07T07:00:25.877Z,76.59
2019-04-07T07:02:55.376Z,76.58
2019-04-07T07:05:33.396Z,76.42
2019-04-07T07:08:01.979Z,76.22
2019-04-07T07:10:37.824Z,76.78
2019-04-07T07:13:11.646Z,75.91
2019-04-07T07:15:38.710Z,75.19
2019-04-07T07:18:19.971Z,75.28
2019-04-07T07:20:48.591Z,75.09
2019-04-07T07:23:20.200Z,74.38
2019-04-07T07:25:47.574Z,74.13
2019-04-07T07:28:14.823Z,72.86
2019-04-07T07:30:42.699Z,72.93
2019-04-07T07:33:11.129Z,72.00
2019-04-07T07:35:38.906Z,71.90
2019-04-07T07:38:07.525Z,71.69
2019-04-07T07:40:35.244Z,71.58
2019-04-07T07:43:02.341Z,71.40
2019-04-07T07:45:29.321Z,71.00
2019-04-07T07:47:56.602Z,70.53
2019-04-07T07:50:24.529Z,70.55
2019-04-07T07:52:53.448Z,70.58
2019-04-07T07:55:20.848Z,70.64
2019-04-07T07:57:48.145Z,71.02
2019-04-07T08:00:15.631Z,71.07
2019-04-07T08:02:42.668Z,71.11
2019-04-07T08:05:10.381Z,71.27
2019-04-07T08:07:37.432Z,71.42
2019-04-07T08:10:05.673Z,71.37
2019-04-07T08:12:35.649Z,71.40
2019-04-07T08:15:06.055Z,71.30
2019-04-07T08:17:33.898Z,71.40
2019-04-07T08:20:02.300Z,71.62
2019-04-07T08:22:33.794Z,71.04
2019-04-07T08:25:01.013Z,70.75
2019-04-07T08:27:31.708Z,70.14
2019-04-07T08:29:57.234Z,70.21
2019-04-07T08:32:26.443Z,70.33
2019-04-07T08:34:53.039Z,69.94
2019-04-07T08:37:20.052Z,69.95
2019-04-07T08:39:47.522Z,69.93
2019-04-07T08:42:18.502Z,69.61
2019-04-07T08:44:44.108Z,69.62
2019-04-07T08:47:14.536Z,69.90
2019-04-07T08:49:40.433Z,69.91
2019-04-07T08:52:10.993Z,70.10
2019-04-07T08:54:37.111Z,70.16
2019-04-07T08:57:04.595Z,69.78
2019-04-07T08:59:31.558Z,69.31
2019-04-07T09:01:58.540Z,69.02
2019-04-07T09:04:26.484Z,68.84
2019-04-07T09:06:53.857Z,68.53
2019-04-07T09:09:31.335Z,68.08
2019-04-07T09:11:53.042Z,67.46
2019-04-07T09:14:18.503Z,67.99
2019-04-07T09:17:02.488Z,68.15
2019-04-07T09:19:41.660Z,67.33
2019-04-07T09:22:11.749Z,67.27
2019-04-07T09:24:50.839Z,67.16
2019-04-07T09:27:23.376Z,67.01
2019-04-07T09:30:07.919Z,66.16
2019-04-07T09:32:52.912Z,65.71
2019-04-07T09:35:26.360Z,66.14
2019-04-07T09:38:14.354Z,65.18
2019-04-07T09:40:49.560Z,65.08
2019-04-07T09:43:22.432Z,64.93
2019-04-07T09:46:10.311Z,65.26
2019-04-07T09:48:42.994Z,64.94
2019-04-07T09:51:15.501Z,63.62
2019-04-07T09:54:00.777Z,63.02
2019-04-07T09:56:36.214Z,62.85
2019-04-07T09:59:15.044Z,62.69
2019-04-07T10:01:45.848Z,61.83
2019-04-07T10:04:20.872Z,61.26
2019-04-07T10:06:53.028Z,60.75
2019-04-07T10:09:31.147Z,59.05
2019-04-07T10:12:00.451Z,57.09
2019-04-07T10:14:42.094Z,56.35
2019-04-07T10:17:20.993Z,56.13
2019-04-07T10:20:06.791Z,55.90
2019-04-07T10:22:41.928Z,56.28
2019-04-07T10:25:21.108Z,53.80
2019-04-07T10:27:58.341Z,54.03
2019-04-07T10:30:27.419Z,53.45
2019-04-07T10:33:00.102Z,52.99
2019-04-07T10:35:38.448Z,48.29
2019-04-07T10:38:10.009Z,50.13
2019-04-07T10:40:39.030Z,47.69
2019-04-07T10:43:25.051Z,47.90
2019-04-07T10:45:54.910Z,47.83
2019-04-07T10:48:26.934Z,47.94
2019-04-07T10:51:08.335Z,48.94
2019-04-07T10:53:43.051Z,48.41
2019-04-07T10:56:18.769Z,47.25
2019-04-07T10:58:57.143Z,46.17
2019-04-07T11:01:26.694Z,45.94
2019-04-07T11:04:08.288Z,45.97
2019-04-07T11:06:37.417Z,44.37
2019-04-07T11:09:11.980Z,44.73
2019-04-07T11:11:41.253Z,43.60
2019-04-07T11:14:11.295Z,44.01
2019-04-07T11:17:01.084Z,45.91
2019-04-07T11:19:43.349Z,42.34
2019-04-07T11:22:12.714Z,40.70
2019-04-07T11:24:45.801Z,41.18
2019-04-07T11:27:17.570Z,39.92
2019-04-07T11:29:50.629Z,39.44
2019-04-07T11:32:22.971Z,39.89
2019-04-07T11:34:53.810Z,40.89
2019-04-07T11:37:31.636Z,41.52
2019-04-07T11:40:04.808Z,43.24
2019-04-07T11:42:35.051Z,38.59
2019-04-07T11:45:20.968Z,38.24
2019-04-07T11:47:52.636Z,39.71
2019-04-07T11:50:32.682Z,39.06
2019-04-07T11:53:05.022Z,39.90
2019-04-07T11:55:37.698Z,41.70
2019-04-07T11:58:23.620Z,41.21
2019-04-07T12:01:04.713Z,41.61
2019-04-07T12:03:43.263Z,43.56
2019-04-07T12:06:19.164Z,45.16
2019-04-07T12:08:54.625Z,46.18
2019-04-07T12:11:26.669Z,47.08
2019-04-07T12:13:56.274Z,47.74
2019-04-07T12:16:29.706Z,46.49
2019-04-07T12:19:12.677Z,46.23
2019-04-07T12:21:42.023Z,44.91
2019-04-07T12:24:13.698Z,46.08
2019-04-07T12:27:01.089Z,46.37
2019-04-07T12:29:48.558Z,44.58
2019-04-07T12:32:34.323Z,45.07
2019-04-07T12:35:15.593Z,42.60
2019-04-07T12:37:49.255Z,43.97
2019-04-07T12:40:34.818Z,43.62
2019-04-07T12:43:07.473Z,43.26
2019-04-07T12:45:53.672Z,43.37
2019-04-07T12:48:38.116Z,43.97
2019-04-07T12:51:08.395Z,43.43
2019-04-07T12:53:40.370Z,43.55
2019-04-07T12:56:31.724Z,43.15
2019-04-07T12:59:00.295Z,41.78
2019-04-07T13:01:29.541Z,41.03
2019-04-07T13:03:59.020Z,41.23
2019-04-07T13:06:40.029Z,39.31
2019-04-07T13:09:11.464Z,38.38
2019-04-07T13:11:49.642Z,37.52
2019-04-07T13:14:24.899Z,37.75
2019-04-07T13:17:11.607Z,36.42
2019-04-07T13:19:48.921Z,36.36
2019-04-07T13:22:27.181Z,37.04
2019-04-07T13:25:00.152Z,38.94
2019-04-07T13:27:41.627Z,37.39
2019-04-07T13:30:12.736Z,38.81
2019-04-07T13:32:56.667Z,38.94
2019-04-07T13:35:27.790Z,38.79
2019-04-07T13:38:00.109Z,38.80
2019-04-07T13:40:47.087Z,40.10
2019-04-07T13:43:25.338Z,40.62
2019-04-07T13:46:18.953Z,40.39
2019-04-07T13:48:58.810Z,39.66
2019-04-07T13:51:24.356Z,38.57
2019-04-07T13:53:59.558Z,39.75
2019-04-07T13:56:28.577Z,37.92
2019-04-07T13:59:01.005Z,39.93
2019-04-07T14:01:32.229Z,39.66
2019-04-07T14:04:01.248Z,38.73
2019-04-07T14:06:39.337Z,39.32
2019-04-07T14:09:12.286Z,39.10
2019-04-07T14:11:53.149Z,38.66
2019-04-07T14:14:30.325Z,38.69
2019-04-07T14:16:59.614Z,37.81
2019-04-07T14:19:42.250Z,38.50
2019-04-07T14:22:20.971Z,40.27
2019-04-07T14:25:06.512Z,40.07
2019-04-07T14:27:52.595Z,41.22
2019-04-07T14:30:40.872Z,41.10
2019-04-07T14:33:16.593Z,41.25
2019-04-07T14:35:45.494Z,42.66
2019-04-07T14:38:17.448Z,41.92
2019-04-07T14:40:49.988Z,42.39
2019-04-07T14:43:19.050Z,41.80
2019-04-07T14:45:48.820Z,42.13
2019-04-07T14:48:24.702Z,42.33
2019-04-07T14:51:05.956Z,42.31
2019-04-07T14:53:36.626Z,42.94
2019-04-07T14:56:08.434Z,42.88
2019-04-07T14:58:48.450Z,43.12
2019-04-07T15:01:14.856Z,43.52
2019-04-07T15:03:42.717Z,43.50
2019-04-07T15:06:10.878Z,44.67
2019-04-07T15:08:46.292Z,43.16
2019-04-07T15:11:16.667Z,43.38
2019-04-07T15:13:45.496Z,43.33
2019-04-07T15:16:12.853Z,43.51
2019-04-07T15:18:40.098Z,43.63
2019-04-07T15:21:07.942Z,44.82
2019-04-07T15:23:35.042Z,45.37
2019-04-07T15:26:02.235Z,46.56
2019-04-07T15:28:31.452Z,46.43
2019-04-07T15:30:58.912Z,44.80
2019-04-07T15:33:25.951Z,44.26
2019-04-07T15:35:53.455Z,44.60
2019-04-07T15:38:24.864Z,45.05
2019-04-07T15:40:50.711Z,45.31
2019-04-07T15:43:17.993Z,46.35
2019-04-07T15:45:45.609Z,44.77
2019-04-07T15:48:13.565Z,44.88
2019-04-07T15:50:41.672Z,45.63
2019-04-07T15:53:09.297Z,44.52
2019-04-07T15:55:45.504Z,44.66
2019-04-07T15:58:05.552Z,44.90
2019-04-07T16:00:35.171Z,46.16
2019-04-07T16:03:01.937Z,45.82
2019-04-07T16:05:28.970Z,45.67
2019-04-07T16:07:56.241Z,45.08
2019-04-07T16:10:26.157Z,44.90
2019-04-07T16:12:54.363Z,45.02
2019-04-07T16:15:23.458Z,45.85
2019-04-07T16:17:50.390Z,45.25
2019-04-07T16:20:22.881Z,46.38
2019-04-07T16:22:49.013Z,46.27
2019-04-07T16:25:16.100Z,47.39
2019-04-07T16:27:44.643Z,47.33
2019-04-07T16:30:15.774Z,46.91
2019-04-07T16:32:41.503Z,46.96
2019-04-07T16:35:13.083Z,47.58
2019-04-07T16:37:39.053Z,48.31
2019-04-07T16:40:10.502Z,48.53
2019-04-07T16:42:37.420Z,48.15
2019-04-07T16:45:06.074Z,48.97
2019-04-07T16:47:35.662Z,48.42
2019-04-07T16:50:03.090Z,49.84
2019-04-07T16:52:32.919Z,49.39
2019-04-07T16:54:59.656Z,49.43
2019-04-07T16:57:30.157Z,49.32
2019-04-07T16:59:56.339Z,49.14
2019-04-07T17:02:24.092Z,49.54
2019-04-07T17:04:51.371Z,49.57
2019-04-07T17:07:20.808Z,50.66
2019-04-07T17:09:47.252Z,50.94
2019-04-07T17:12:14.998Z,51.26
2019-04-07T17:14:42.091Z,51.40
2019-04-07T17:17:09.975Z,52.07
2019-04-07T17:19:37.317Z,53.15
2019-04-07T17:22:07.207Z,53.86
2019-04-07T17:24:34.534Z,54.19
2019-04-07T17:27:03.028Z,54.89
2019-04-07T17:29:30.426Z,55.77
2019-04-07T17:32:01.266Z,56.49
2019-04-07T17:34:26.485Z,56.90
2019-04-07T17:36:55.951Z,56.52
2019-04-07T17:39:24.723Z,56.37
2019-04-07T17:41:52.762Z,56.84
2019-04-07T17:44:28.643Z,57.43
2019-04-07T17:47:07.063Z,57.65
2019-04-07T17:49:56.037Z,57.56
2019-04-07T17:52:26.166Z,58.07
2019-04-07T17:54:58.914Z,57.55
2019-04-07T17:57:45.033Z,57.22
2019-04-07T18:00:21.750Z,57.08
2019-04-07T18:03:05.230Z,57.10
2019-04-07T18:05:40.724Z,57.81
2019-04-07T18:08:12.983Z,57.40
2019-04-07T18:10:56.010Z,58.29
2019-04-07T18:13:43.347Z,58.46
2019-04-07T18:16:22.742Z,58.21
2019-04-07T18:19:01.604Z,58.02
2019-04-07T18:21:32.256Z,58.19
2019-04-07T18:24:18.072Z,58.23
2019-04-07T18:27:03.583Z,58.16
2019-04-07T18:29:45.997Z,58.67
2019-04-07T18:32:27.474Z,59.18
2019-04-07T18:35:02.631Z,59.31
2019-04-07T18:37:42.190Z,59.28
2019-04-07T18:40:28.211Z,59.62
2019-04-07T18:43:12.182Z,59.54
2019-04-07T18:45:57.820Z,59.50
2019-04-07T18:48:29.298Z,59.74
2019-04-07T18:50:58.811Z,59.95
2019-04-07T18:53:28.727Z,60.37
2019-04-07T18:56:10.497Z,60.44
2019-04-07T18:58:50.042Z,60.85
2019-04-07T19:01:38.986Z,61.62
2019-04-07T19:04:10.070Z,62.03
2019-04-07T19:06:47.513Z,61.97
2019-04-07T19:09:28.286Z,61.94
2019-04-07T19:12:07.905Z,62.00
2019-04-07T19:14:44.579Z,61.98
2019-04-07T19:17:25.590Z,62.19
2019-04-07T19:19:57.138Z,62.83
2019-04-07T19:22:37.207Z,63.11
2019-04-07T19:25:17.251Z,64.35
2019-04-07T19:27:55.419Z,65.29
2019-04-07T19:30:43.674Z,65.95
2019-04-07T19:33:24.062Z,67.37
2019-04-07T19:36:11.193Z,66.45
2019-04-07T19:38:49.267Z,65.97
2019-04-07T19:41:16.791Z,65.65
2019-04-07T19:43:55.310Z,65.92
2019-04-07T19:46:28.191Z,66.15
2019-04-07T19:48:56.109Z,66.24
2019-04-07T19:51:34.163Z,66.48
2019-04-07T19:54:03.213Z,66.76
2019-04-07T19:56:44.184Z,66.65
2019-04-07T19:59:13.964Z,66.76
2019-04-07T20:01:58.509Z,66.44
2019-04-07T20:04:47.785Z,66.60
2019-04-07T20:07:33.240Z,66.08
2019-04-07T20:10:05.156Z,65.64
2019-04-07T20:12:42.635Z,67.32
2019-04-07T20:15:29.676Z,68.43
2019-04-07T20:18:11.146Z,69.12
2019-04-07T20:20:43.223Z,70.12
2019-04-07T20:23:16.826Z,70.67
2019-04-07T20:25:59.976Z,70.25
2019-04-07T20:28:32.481Z,70.69
2019-04-07T20:31:04.361Z,71.40
2019-04-07T20:33:37.007Z,70.93
2019-04-07T20:36:23.861Z,70.20
2019-04-07T20:39:11.497Z,69.94
2019-04-07T20:41:52.543Z,70.17
2019-04-07T20:44:38.233Z,70.31
2019-04-07T20:47:26.367Z,70.23
2019-04-07T20:49:55.004Z,70.26
2019-04-07T20:52:32.727Z,70.26
2019-04-07T20:55:04.745Z,70.28
2019-04-07T20:57:41.214Z,70.34
2019-04-07T21:00:27.291Z,70.27
2019-04-07T21:03:14.088Z,70.89
2019-04-07T21:05:30.855Z,71.12
2019-04-07T21:08:01.048Z,71.01
2019-04-07T21:10:30.741Z,71.35
2019-04-07T21:13:05.765Z,71.42
2019-04-07T21:15:46.667Z,71.29
2019-04-07T21:18:28.898Z,71.30
2019-04-07T21:20:56.788Z,71.87
2019-04-07T21:23:36.968Z,72.05
2019-04-07T21:26:12.271Z,72.19
2019-04-07T21:28:41.099Z,72.83
2019-04-07T21:31:26.778Z,73.58
2019-04-07T21:33:59.206Z,73.11
2019-04-07T21:36:37.581Z,72.67
2019-04-07T21:39:14.510Z,72.09
2019-04-07T21:41:59.881Z,72.10
2019-04-07T21:44:45.715Z,72.15
2019-04-07T21:47:31.730Z,72.65
2019-04-07T21:50:09.623Z,72.90
2019-04-07T21:52:43.529Z,72.84
2019-04-07T21:55:31.167Z,73.50
2019-04-07T21:58:16.888Z,73.43
2019-04-07T22:00:49.025Z,73.68
2019-04-07T22:03:24.486Z,73.49
2019-04-07T22:06:00.550Z,73.35
2019-04-07T22:08:30.517Z,73.77
2019-04-07T22:10:57.729Z,73.54
2019-04-07T22:13:25.789Z,73.19
2019-04-07T22:15:57.898Z,73.18
2019-04-07T22:18:21.883Z,73.27
2019-04-07T22:20:52.316Z,73.47
2019-04-07T22:23:18.755Z,73.28
2019-04-07T22:25:50.498Z,72.87
2019-04-07T22:28:18.485Z,73.32
2019-04-07T22:30:47.101Z,73.99
2019-04-07T22:33:14.139Z,74.44
2019-04-07T22:35:42.743Z,74.28
2019-04-07T22:38:09.823Z,74.03
2019-04-07T22:40:39.115Z,74.31
2019-04-07T22:43:06.112Z,73.67
2019-04-07T22:45:35.164Z,73.67
2019-04-07T22:48:03.418Z,73.66
2019-04-07T22:50:35.498Z,73.14
2019-04-07T22:53:01.692Z,73.86
2019-04-07T22:55:29.208Z,73.61
2019-04-07T22:57:56.436Z,73.33
2019-04-07T23:00:26.921Z,73.53
2019-04-07T23:02:54.191Z,73.87
2019-04-07T23:05:21.720Z,73.61
2019-04-07T23:07:50.078Z,73.52
2019-04-07T23:10:17.651Z,74.76
2019-04-07T23:12:44.770Z,75.43
2019-04-07T23:15:13.616Z,75.98
2019-04-07T23:17:40.592Z,76.63
2019-04-07T23:20:07.876Z,76.61
2019-04-07T23:22:36.219Z,75.99
2019-04-07T23:25:05.762Z,75.52
2019-04-07T23:27:33.862Z,75.71
2019-04-07T23:30:01.228Z,75.38
2019-04-07T23:32:28.292Z,75.15
2019-04-07T23:34:55.474Z,76.20
2019-04-07T23:37:22.516Z,75.33
2019-04-07T23:39:49.602Z,74.79
2019-04-07T23:42:16.946Z,74.66
2019-04-07T23:44:43.999Z,74.82
2019-04-07T23:47:11.270Z,75.15
2019-04-07T23:49:38.512Z,75.26
2019-04-07T23:52:07.505Z,75.77
2019-04-07T23:54:35.258Z,75.14
2019-04-07T23:57:03.863Z,75.57
2019-04-07T23:59:31.012Z,75.08
